Time;durP1;ratioP1;P1;durP2;ratioP2;P2;SDS_P1;SDS_P2;PMS_P1;PMS_P2;Temp;Humidity;BMP_temperature;BMP_pressure;BME280_temperature;BME280_humidity;BME280_pressure;Samples;Min_cycle;Max_cycle;Signal;HPM_P1;HPM_P2
2021/06/19 00:07:38;;;;;;;8.40;3.85;;;26.10;93.40;;;;;;6753875;88;20188;-80
2021/06/19 00:17:39;;;;;;;8.20;3.37;;;26.00;93.50;;;;;;6740850;88;20771;-79
2021/06/19 00:27:41;;;;;;;9.43;3.85;;;25.80;94.10;;;;;;6754489;88;20188;-80
2021/06/19 00:37:42;;;;;;;9.38;3.83;;;25.50;94.60;;;;;;6753101;88;20191;-80
2021/06/19 00:47:42;;;;;;;10.63;3.87;;;25.40;95.00;;;;;;6760895;88;20211;-81
2021/06/19 00:57:44;;;;;;;9.30;3.08;;;25.20;95.50;;;;;;6757495;88;20196;-80
2021/06/19 01:07:44;;;;;;;9.57;3.22;;;25.10;95.40;;;;;;6754073;88;20180;-80
2021/06/19 01:17:45;;;;;;;7.18;3.47;;;25.00;95.80;;;;;;6754389;88;20222;-79
2021/06/19 01:27:48;;;;;;;6.62;2.83;;;24.70;96.50;;;;;;6756178;88;20205;-80
2021/06/19 01:37:52;;;;;;;5.33;2.80;;;24.50;96.10;;;;;;6752538;88;20724;-79
2021/06/19 01:47:53;;;;;;;;;;;24.40;96.20;;;;;;6755832;88;20212;-80
2021/06/19 01:57:56;;;;;;;3.72;2.10;;;24.30;96.60;;;;;;6753492;88;20060;-80
2021/06/19 02:07:59;;;;;;;3.83;2.10;;;24.20;96.40;;;;;;6750508;88;20172;-80
2021/06/19 02:18:00;;;;;;;6.43;2.27;;;24.20;96.60;;;;;;6751946;88;20282;-77
2021/06/19 02:28:06;;;;;;;5.57;2.05;;;24.00;97.00;;;;;;6751861;88;20168;-81
2021/06/19 02:38:08;;;;;;;6.43;1.95;;;23.90;97.50;;;;;;6754062;88;20702;-80
2021/06/19 02:48:08;;;;;;;3.60;1.90;;;23.80;97.60;;;;;;6757527;88;20683;-80
2021/06/19 02:58:11;;;;;;;2.92;1.70;;;23.60;98.10;;;;;;6750437;88;20259;-79
2021/06/19 03:08:11;;;;;;;3.72;2.00;;;23.50;98.50;;;;;;6753843;88;20191;-80
2021/06/19 03:18:12;;;;;;;5.55;2.67;;;23.20;99.60;;;;;;6753050;88;20222;-79
2021/06/19 03:28:14;;;;;;;3.70;2.60;;;22.80;99.90;;;;;;6748802;88;20186;-80
2021/06/19 03:38:15;;;;;;;3.95;2.40;;;22.90;99.90;;;;;;6753333;88;20544;-80
2021/06/19 03:48:15;;;;;;;5.43;2.30;;;22.50;99.90;;;;;;6756519;88;20177;-77
2021/06/19 03:58:17;;;;;;;4.33;2.70;;;22.50;99.90;;;;;;6756166;88;20230;-78
2021/06/19 04:08:18;;;;;;;3.78;2.37;;;22.40;99.90;;;;;;6753086;88;20212;-79
2021/06/19 04:28:23;;;;;;;7.70;2.00;;;22.30;99.90;;;;;;6788798;87;20204;-79
2021/06/19 04:38:23;;;;;;;2.80;1.90;;;22.50;99.90;;;;;;6763719;88;20192;-79
2021/06/19 04:48:24;;;;;;;3.42;1.67;;;22.70;99.90;;;;;;6758074;87;20199;-78
2021/06/19 04:58:25;;;;;;;3.75;1.85;;;22.80;99.90;;;;;;6754703;87;20932;-79
2021/06/19 05:08:26;;;;;;;4.72;1.48;;;22.80;99.90;;;;;;6758188;87;20220;-78
2021/06/19 05:18:26;;;;;;;3.50;1.50;;;23.00;99.90;;;;;;6760104;87;20200;-78
2021/06/19 05:28:27;;;;;;;3.45;1.20;;;23.00;99.90;;;;;;6758451;87;20225;-78
2021/06/19 05:38:27;;;;;;;2.85;1.40;;;23.10;99.90;;;;;;6760145;88;20183;-79
2021/06/19 05:48:28;;;;;;;2.60;1.20;;;23.20;99.90;;;;;;6759411;88;20253;-80
2021/06/19 05:58:28;;;;;;;1.48;1.00;;;23.40;99.90;;;;;;6759166;88;20200;-79
2021/06/19 06:08:29;;;;;;;2.25;1.00;;;23.90;99.90;;;;;;6759699;87;20226;-79
2021/06/19 06:18:29;;;;;;;2.03;1.10;;;24.50;99.10;;;;;;6758691;87;20725;-79
2021/06/19 06:28:30;;;;;;;2.78;1.20;;;25.30;97.60;;;;;;6754305;88;20205;-77
2021/06/19 06:38:31;;;;;;;3.10;1.30;;;25.50;97.30;;;;;;6748554;88;20239;-80
2021/06/19 06:48:31;;;;;;;1.80;1.10;;;26.00;96.70;;;;;;6751768;88;20227;-78
2021/06/19 06:58:32;;;;;;;2.25;1.20;;;26.70;95.70;;;;;;6748212;88;20221;-79
2021/06/19 07:08:32;;;;;;;1.62;1.20;;;27.30;94.60;;;;;;6749606;88;20224;-79
2021/06/19 07:18:33;;;;;;;1.80;1.25;;;28.10;93.70;;;;;;6747005;87;20228;-78
2021/06/19 07:28:33;;;;;;;2.00;1.20;;;28.10;93.40;;;;;;6752633;88;20249;-79
2021/06/19 07:38:34;;;;;;;1.87;1.25;;;28.90;92.40;;;;;;6750337;88;20619;-77
2021/06/19 07:48:35;;;;;;;2.62;1.30;;;28.80;92.20;;;;;;6753107;88;20292;-78
2021/06/19 07:58:35;;;;;;;2.75;1.23;;;28.70;92.50;;;;;;6762529;88;20199;-78
2021/06/19 08:08:36;;;;;;;3.15;1.40;;;29.70;91.90;;;;;;6760911;87;20188;-77
2021/06/19 08:18:36;;;;;;;2.95;1.33;;;30.60;90.80;;;;;;6752507;87;20185;-77
2021/06/19 08:28:37;;;;;;;4.57;1.33;;;31.00;89.40;;;;;;6753499;88;20195;-77
2021/06/19 08:38:38;;;;;;;2.53;1.50;;;31.50;88.00;;;;;;6749597;88;20179;-77
2021/06/19 08:48:39;;;;;;;3.40;1.53;;;31.30;89.40;;;;;;6752806;88;20622;-77
2021/06/19 08:58:41;;;;;;;4.60;1.52;;;32.00;88.80;;;;;;6752851;88;20507;-78
2021/06/19 09:08:58;;;;;;;2.22;1.60;;;32.00;86.10;;;;;;6752689;88;20385;-78
2021/06/19 09:18:59;;;;;;;4.30;1.55;;;32.50;86.70;;;;;;6751196;87;20191;-77
2021/06/19 09:29:05;;;;;;;;;;;33.10;84.40;;;;;;6757646;88;20196;-78
2021/06/19 09:39:07;;;;;;;4.15;1.48;;;33.00;82.50;;;;;;6760400;88;20062;-78
2021/06/19 09:49:10;;;;;;;3.08;1.50;;;33.70;82.50;;;;;;6750877;88;20308;-77
2021/06/19 09:59:44;;;;;;;3.65;1.60;;;35.20;79.60;;;;;;6755504;87;20216;-79
2021/06/19 10:09:51;;;;;;;3.15;1.40;;;35.30;78.30;;;;;;6755195;88;20210;-78
2021/06/19 10:19:54;;;;;;;4.43;1.60;;;35.60;78.90;;;;;;6756463;87;20192;-79
2021/06/19 10:29:56;;;;;;;4.12;1.67;;;34.20;79.80;;;;;;6757042;88;20204;-77
2021/06/19 10:40:13;;;;;;;3.20;1.90;;;35.40;78.20;;;;;;6749934;88;20232;-78
2021/06/19 10:50:22;;;;;;;2.95;1.60;;;35.70;76.80;;;;;;6748458;87;20242;-78
2021/06/19 11:00:31;;;;;;;5.47;2.00;;;37.40;74.20;;;;;;6748086;88;20262;-78
2021/06/19 11:21:07;;;;;;;6.03;1.70;;;35.70;74.60;;;;;;6748849;87;20193;-77
2021/06/19 11:31:18;;;;;;;3.95;1.60;;;36.60;72.60;;;;;;6743675;88;20785;-77
2021/06/19 11:41:24;;;;;;;3.17;1.60;;;38.40;71.30;;;;;;6748352;87;20204;-78
2021/06/19 11:51:27;;;;;;;5.20;1.80;;;37.90;70.80;;;;;;6750180;87;20217;-75
2021/06/19 12:01:28;;;;;;;3.15;2.15;;;38.00;70.70;;;;;;6746763;88;20701;-76
2021/06/19 12:11:32;;;;;;;4.65;1.60;;;37.90;68.60;;;;;;6752767;87;20342;-76
2021/06/19 12:21:34;;;;;;;2.58;1.60;;;37.20;66.20;;;;;;6752765;87;20285;-78
2021/06/19 12:31:35;;;;;;;3.17;1.60;;;35.40;67.70;;;;;;6752395;87;20705;-78
2021/06/19 12:41:35;;;;;;;3.30;1.50;;;34.70;69.50;;;;;;6753374;88;20224;-76
2021/06/19 12:51:37;;;;;;;4.28;1.50;;;34.40;69.70;;;;;;6752809;88;20662;-78
2021/06/19 13:01:37;;;;;;;3.85;1.50;;;34.10;70.20;;;;;;6754850;87;20275;-77
2021/06/19 13:11:44;;;;;;;2.90;1.60;;;34.20;71.50;;;;;;6760608;88;20263;-77
2021/06/19 13:21:47;;;;;;;4.10;1.50;;;34.80;70.60;;;;;;6755444;88;20628;-78
2021/06/19 13:31:47;;;;;;;2.83;1.45;;;34.30;71.60;;;;;;6753208;88;20222;-76
2021/06/19 13:41:55;;;;;;;3.25;1.50;;;36.20;66.10;;;;;;6754899;88;20738;-76
2021/06/19 13:51:58;;;;;;;2.37;1.45;;;34.50;67.50;;;;;;6757293;88;20251;-76
2021/06/19 14:01:58;;;;;;;2.60;1.40;;;35.30;65.80;;;;;;6752173;88;20193;-76
2021/06/19 14:12:05;;;;;;;4.82;1.75;;;34.70;65.70;;;;;;6757969;88;20223;-77
2021/06/19 14:22:05;;;;;;;3.30;1.60;;;35.50;67.10;;;;;;6759892;88;20644;-77
2021/06/19 14:32:06;;;;;;;2.90;1.70;;;37.20;64.00;;;;;;6757235;87;20213;-78
2021/06/19 14:42:07;;;;;;;2.92;1.50;;;37.40;64.00;;;;;;6750480;88;20222;-78
2021/06/19 14:52:08;;;;;;;5.15;1.80;;;36.20;63.70;;;;;;6748714;88;20200;-77
2021/06/19 15:02:08;;;;;;;;;;;37.00;63.00;;;;;;6753374;88;20200;-76
2021/06/19 15:12:09;;;;;;;2.83;1.70;;;35.70;65.00;;;;;;6750520;88;20556;-77
2021/06/19 15:22:10;;;;;;;4.35;2.03;;;34.90;66.80;;;;;;6739911;87;20516;-76
2021/06/19 15:32:10;;;;;;;4.33;1.80;;;34.30;70.20;;;;;;6738724;88;20311;-77
2021/06/19 15:42:11;;;;;;;3.73;2.00;;;34.80;67.40;;;;;;6756789;88;20796;-78
2021/06/19 15:52:12;;;;;;;4.50;1.87;;;35.20;66.60;;;;;;6760135;88;20311;-74
2021/06/19 16:02:12;;;;;;;3.23;1.70;;;35.60;66.80;;;;;;6755594;88;20214;-77
2021/06/19 16:12:13;;;;;;;3.47;1.80;;;34.80;68.10;;;;;;6751681;88;20206;-77
2021/06/19 16:22:14;;;;;;;4.40;1.65;;;34.20;68.30;;;;;;6752561;88;20234;-77
2021/06/19 16:32:14;;;;;;;4.13;1.93;;;34.50;68.00;;;;;;6753237;87;20238;-78
2021/06/19 16:42:15;;;;;;;5.30;2.00;;;34.50;68.80;;;;;;6751771;87;21070;-77
2021/06/19 16:52:15;;;;;;;4.97;2.00;;;34.00;69.80;;;;;;6745185;87;20204;-77
2021/06/19 17:02:16;;;;;;;5.12;2.42;;;33.70;70.90;;;;;;6748435;88;20515;-77
2021/06/19 17:12:16;;;;;;;4.55;2.47;;;33.30;72.00;;;;;;6750774;88;20201;-77
2021/06/19 17:22:17;;;;;;;4.70;2.27;;;33.00;74.40;;;;;;6749264;87;20189;-77
2021/06/19 17:32:17;;;;;;;6.43;2.20;;;32.90;74.90;;;;;;6749242;87;20180;-77
2021/06/19 17:42:18;;;;;;;5.65;2.47;;;32.70;77.40;;;;;;6749676;87;20250;-77
2021/06/19 17:52:21;;;;;;;4.30;2.40;;;32.70;77.50;;;;;;6748959;88;20220;-77
2021/06/19 18:02:29;;;;;;;8.30;2.55;;;32.00;79.00;;;;;;6748078;88;20221;-77
2021/06/19 18:12:30;;;;;;;7.30;2.95;;;31.50;79.90;;;;;;6749047;88;20233;-77
2021/06/19 18:22:30;;;;;;;4.53;2.80;;;31.40;81.00;;;;;;6750729;88;20419;-77
2021/06/19 18:32:31;;;;;;;5.45;2.75;;;31.30;81.90;;;;;;6747990;88;20385;-77
2021/06/19 18:42:32;;;;;;;5.80;3.05;;;30.90;83.10;;;;;;6748414;88;20188;-77
2021/06/19 18:52:34;;;;;;;8.48;3.50;;;30.60;84.20;;;;;;6741886;88;20195;-77
2021/06/19 19:02:35;;;;;;;5.57;2.92;;;30.40;85.70;;;;;;6749200;88;20317;-79
2021/06/19 19:12:36;;;;;;;4.65;2.78;;;30.20;86.80;;;;;;6753204;88;20609;-78
2021/06/19 19:22:36;;;;;;;6.13;2.80;;;30.20;87.30;;;;;;6745408;88;20201;-76
2021/06/19 19:32:37;;;;;;;8.80;3.30;;;29.90;87.30;;;;;;6747020;88;20688;-77
2021/06/19 19:42:37;;;;;;;6.17;3.20;;;29.60;88.10;;;;;;6740959;87;20255;-77
2021/06/19 19:52:38;;;;;;;6.87;3.80;;;29.30;90.00;;;;;;6741664;87;20173;-77
2021/06/19 20:02:39;;;;;;;5.57;3.05;;;29.20;89.80;;;;;;6742681;88;20206;-78
2021/06/19 20:12:40;;;;;;;6.90;3.40;;;29.10;89.70;;;;;;6746132;88;20606;-80
2021/06/19 20:22:42;;;;;;;7.75;3.85;;;28.80;92.50;;;;;;6761649;88;20208;-80
2021/06/19 20:32:43;;;;;;;7.50;3.83;;;28.10;96.00;;;;;;6763429;88;20179;-81
2021/06/19 20:42:45;;;;;;;7.65;3.97;;;27.50;97.50;;;;;;6750083;88;20220;-82
2021/06/19 20:52:48;;;;;;;7.78;4.40;;;27.10;99.80;;;;;;6756931;88;20217;-80
2021/06/19 21:02:49;;;;;;;13.62;5.43;;;26.80;99.90;;;;;;6768857;88;20250;-81
2021/06/19 21:12:50;;;;;;;18.98;6.75;;;26.60;99.90;;;;;;6771060;87;20236;-78
2021/06/19 21:22:52;;;;;;;24.85;6.55;;;23.70;99.90;;;;;;6754601;88;20201;-76
2021/06/19 21:32:52;;;;;;;18.45;6.65;;;22.50;99.90;;;;;;6745647;87;20223;-77
2021/06/19 21:42:54;;;;;;;17.95;8.85;;;22.10;99.90;;;;;;6747344;88;20204;-77
2021/06/19 21:52:54;;;;;;;17.35;9.13;;;22.20;99.90;;;;;;6755718;88;20603;-79
2021/06/19 22:02:57;;;;;;;15.20;7.60;;;22.20;99.90;;;;;;6756312;88;20371;-79
2021/06/19 22:12:58;;;;;;;20.00;8.32;;;22.20;99.90;;;;;;6751596;88;20802;-79
2021/06/19 22:22:59;;;;;;;15.95;8.32;;;22.20;99.90;;;;;;6749559;88;20676;-80
2021/06/19 22:33:01;;;;;;;14.77;9.27;;;22.10;99.90;;;;;;6753074;88;20192;-79
2021/06/19 22:43:02;;;;;;;19.70;9.73;;;22.10;99.90;;;;;;6759151;88;20291;-80
2021/06/19 22:53:03;;;;;;;20.35;8.40;;;21.80;99.90;;;;;;6752515;88;20184;-79
2021/06/19 23:03:04;;;;;;;24.17;8.48;;;21.60;99.90;;;;;;6761806;88;20342;-78
2021/06/19 23:13:04;;;;;;;28.65;8.15;;;21.00;99.90;;;;;;6748801;88;20296;-78
2021/06/19 23:23:05;;;;;;;12.43;4.40;;;20.40;99.90;;;;;;6734975;88;20219;-78
2021/06/19 23:33:05;;;;;;;10.02;4.28;;;20.30;99.90;;;;;;6735894;88;20227;-78
2021/06/19 23:43:06;;;;;;;8.68;3.67;;;20.60;99.90;;;;;;6735630;88;20663;-79
2021/06/19 23:53:06;;;;;;;9.27;4.22;;;20.50;99.90;;;;;;6736090;88;20222;-79
